• Join FlightAware (Why Join?)
  • Login
  • US Flag GB Flag 
20:20 EST


 

Airport Tracker/Info


-or-


 

Live Flight TrackerFlight Track Log ✈ FLG3811 ✈ 23-Apr-2013 ✈ KDTW - KPVD

Flight Track Log - Related Links

Times and Time Zones

All times are in EDT time to prevent confusion due to time zone crossing. See the FLG3811 flight status page for this flight to view local times or setup timezone preferences in your user account.

Time Position Orientation Groundspeed Altitude Reporting Facility
EDT Latitude Longitude Course Direction KTS MPH feet Rate Location/Type
22:05 42.2050 -83.3533 90° East 158 182 1,200  Level FAA TRACON SMA TRACON (SMA)
22:05 42.1933 -83.3600 203° Southwest 154 177 2,000 2,100 Climbing FAA TRACON SMA TRACON (SMA)
22:05 42.1769 -83.3561 170° South 177 204 2,600 2,220 Climbing FAA TRACON SMA TRACON (SMA)
22:06 42.1617 -83.3522 169° South 181 208 3,500 2,700 Climbing FAA TRACON SMA TRACON (SMA)
22:06 42.1433 -83.3472 169° South 185 213 4,400 1,620 Climbing FAA TRACON SMA TRACON (SMA)
22:06 42.1250 -83.3431 170° South 221 254 4,600 1,200 Climbing FAA TRACON SMA TRACON (SMA)
22:07 42.1053 -83.3381 169° South 234 269 5,200 2,340 Climbing FAA TRACON SMA TRACON (SMA)
22:07 42.0858 -83.3122 135° Southeast 267 307 6,200 2,520 Climbing FAA TRACON SMA TRACON (SMA)
22:07 42.0814 -83.2803 101° East 276 318 6,900 2,100 Climbing FAA TRACON SMA TRACON (SMA)
22:08 42.3193 -82.7240 82° East  Level FlightAware Approximate
22:08 42.0900 -83.2467 71° East 293 337 7,600  Level FAA TRACON SMA TRACON (SMA)
22:08 42.1039 -83.2058 65° Northeast 295 339 8,500 2,400 Climbing FAA TRACON SMA TRACON (SMA)
22:08 42.1161 -83.1722 64° Northeast 319 367 9,200 2,160 Climbing FAA TRACON SMA TRACON (SMA)
22:09 42.3381 -82.5644 71° East  Level FlightAware Approximate
22:09 42.1306 -83.1303 65° Northeast 322 371 10,000  Level FAA TRACON SMA TRACON (SMA)
22:09 42.1431 -83.0961 64° Northeast 328 377 10,400 600 Climbing FAA TRACON SMA TRACON (SMA)
22:09 42.1558 -83.0589 65° Northeast 359 413 10,400 720 Level FAA TRACON SMA TRACON (SMA)
22:10 42.3667 -82.4120 90° East  Level FlightAware Approximate
22:10 42.1728 -83.0097 65° Northeast 362 417 10,900  Level FAA TRACON SMA TRACON (SMA)
22:10 42.1869 -82.9708 64° Northeast 377 434 11,200 1,260 Climbing FAA TRACON SMA TRACON (SMA)
22:10 42.2017 -82.9289 65° Northeast 382 440 11,800 1,800 Climbing FAA TRACON SMA TRACON (SMA)
22:11 42.2189 -82.8803 64° Northeast 385 443 12,400 1,680 Climbing FAA TRACON SMA TRACON (SMA)
22:11 42.2331 -82.8400 65° Northeast 387 445 12,900 900 Climbing FAA TRACON SMA TRACON (SMA)
22:11 42.2472 -82.7994 65° Northeast 388 447 13,000 300 Climbing FAA TRACON SMA TRACON (SMA)
22:12 42.2619 -82.7575 65° Northeast 396 456 13,100 1,260 Climbing FAA TRACON SMA TRACON (SMA)
22:12 42.2808 -82.7047 64° Northeast 404 465 13,900 1,620 Climbing FAA TRACON SMA TRACON (SMA)
22:12 42.2953 -82.6628 65° Northeast 402 463 14,200 1,200 Climbing FAA TRACON SMA TRACON (SMA)
22:13 42.3136 -82.6106 65° Northeast 402 463 14,700 1,320 Climbing FAA TRACON SMA TRACON (SMA)
22:13 42.3281 -82.5683 65° Northeast 403 464 15,100 1,200 Climbing FAA TRACON SMA TRACON (SMA)
22:13 42.3428 -82.5258 65° Northeast 404 465 15,500 1,140 Climbing FAA TRACON SMA TRACON (SMA)
22:14 42.3611 -82.4725 65° Northeast 407 468 15,900 1,020 Climbing FAA TRACON SMA TRACON (SMA)
22:14 42.3672 -82.4253 80° East 415 478 16,200 900 Climbing FAA TRACON SMA TRACON (SMA)
22:14 42.3656 -82.3781 93° East 410 472 16,500 1,020 Climbing FAA TRACON SMA TRACON (SMA)
22:15 42.3639 -82.3186 92° East 411 473 16,900 1,200 Climbing FAA TRACON SMA TRACON (SMA)
22:15 42.3617 -82.2717 94° East 410 472 17,300 1,140 Climbing FAA TRACON SMA TRACON (SMA)
22:15 42.3594 -82.2244 94° East 410 472 17,700 720 Climbing FAA TRACON SMA TRACON (SMA)
22:16 42.3583 -82.1869 92° East 409 471 17,800 120 Climbing FAA TRACON SMA TRACON (SMA)
22:16 42.3583 -82.1869 315° West 409 471 17,800 900 Level FAA TRACON SMA TRACON (SMA)
22:16 42.3525 -82.0694 94° East 406 467 18,500 840 Climbing Cleveland Center
22:17 42.3442 -81.9092 94° East 420 483 19,000 480 Climbing Cleveland Center
22:18 42.3356 -81.7292 94° East 429 494 19,500 900 Climbing Cleveland Center
22:19 42.3267 -81.5633 94° East 434 499 20,800 1,020 Climbing Cleveland Center
22:20 42.3197 -81.3975 93° East 441 507 21,600 780 Climbing Cleveland Center
22:21 42.3125 -81.2233 93° East 454 522 22,400 900 Climbing Cleveland Center
22:22 42.3050 -81.0519 93° East 459 528 23,500 1,020 Climbing Cleveland Center
22:23 42.2953 -80.8808 94° East 459 528 24,500 960 Climbing Cleveland Center
22:24 42.2850 -80.7067 95° East 459 528 25,500 900 Climbing Cleveland Center
22:25 42.2767 -80.5550 94° East 459 528 26,400 900 Climbing Cleveland Center
22:26 42.2744 -80.3839 91° East 459 528 27,400 900 Climbing Cleveland Center
22:27 42.2867 -80.2128 84° East 459 528 28,300 660 Climbing Cleveland Center
22:28 42.3028 -80.0469 82° East 459 528 28,800 480 Climbing Cleveland Center
22:29 42.3142 -79.8728 85° East 459 528 29,300 480 Climbing Cleveland Center
22:30 42.3256 -79.6986 85° East 464 534 29,800 480 Climbing Cleveland Center
22:31 42.3386 -79.5242 84° East 464 534 30,300 480 Climbing Cleveland Center
22:32 42.3514 -79.3469 84° East 464 534 30,800 300 Climbing Cleveland Center
22:33 42.3619 -79.1697 85° East 464 534 31,000 60 Climbing Cleveland Center
22:34 42.3742 -78.9925 85° East 464 534 31,000  Level Cleveland Center
22:35 42.3881 -78.7897 85° East 474 545 31,000  Level Cleveland Center
22:36 42.3994 -78.6064 85° East 484 557 31,000  Level Cleveland Center
22:37 42.4108 -78.4233 85° East 484 557 31,000  Level Cleveland Center
22:38 42.4197 -78.2431 86° East 484 557 31,000  Level Cleveland Center
22:39 42.4306 -78.0569 85° East 484 557 31,000  Level Cleveland Center
22:40 42.4408 -77.8708 86° East 484 557 31,000  Level Cleveland Center
22:41 42.4508 -77.6875 86° East 484 557 31,000  Level Cleveland Center
22:44 42.4733 -77.2572 86° East 495 570 31,000  Level Boston Center
22:45 42.4831 -77.0692 86° East 495 570 31,000  Level Boston Center
22:46 42.4928 -76.8842 86° East 495 570 31,000  Level Boston Center
22:47 42.5000 -76.6931 87° East 495 570 31,000  Level Boston Center
22:48 42.5067 -76.5075 87° East 495 570 31,000  Level Boston Center
22:49 42.5111 -76.3217 88° East 495 570 31,000  Level Boston Center
22:50 42.4422 -76.1403 117° Southeast 469 540 31,000  Level Boston Center
22:51 42.3681 -75.9783 122° Southeast 483 556 31,000  Level Boston Center
22:52 42.2939 -75.8169 122° Southeast 495 570 31,000  Level Boston Center
22:53 42.2272 -75.6703 122° Southeast 505 581 31,000  Level Boston Center
22:54 42.1547 -75.5069 121° Southeast 505 581 31,000  Level Boston Center
22:55 42.0817 -75.3467 122° Southeast 511 588 31,000  Level Boston Center
22:56 42.0728 -75.2008 95° East 485 558 31,000  Level Boston Center
22:57 42.0969 -74.9722 82° East 462 532 31,000 -60 Level Boston Center
22:58 42.1156 -74.7911 82° East 470 541 30,900 -300 Descending Boston Center
22:59 42.1311 -74.6350 82° East 478 550 30,400 -900 Descending Boston Center
23:00 42.1467 -74.4675 83° East 464 534 29,100 -720 Descending Boston Center
23:01 42.1664 -74.2889 81° East 442 509 29,000 -120 Descending Boston Center
23:02 42.1836 -74.1267 82° East 436 502 28,900 -840 Descending Boston Center
23:03 42.1983 -73.9647 83° East 436 502 27,400 -1,500 Descending Boston Center
23:04 42.2108 -73.8081 84° East 431 496 26,000 -1,380 Descending Boston Center
23:05 42.2250 -73.6597 83° East 435 501 24,700 -1,080 Descending Boston Center
23:06 42.2411 -73.5058 82° East 429 494 23,900 -1,020 Descending Boston Center
23:07 42.2528 -73.3544 84° East 412 474 22,700 -1,500 Descending Boston Center
23:08 42.2644 -73.1947 84° East 404 465 21,000 -1,800 Descending Boston Center
23:09 42.2153 -73.0597 116° Southeast 375 432 19,200 -1,020 Descending Boston Center
23:10 42.1367 -72.9581 136° Southeast 380 437 19,000 -240 Descending Boston Center
23:11 42.0619 -72.8567 135° Southeast 380 437 18,800 -600 Descending Boston Center
23:12 41.9914 -72.7614 135° Southeast 386 444 17,800 -480 Descending Boston Center
23:13 41.9250 -72.6578 131° Southeast 396 456 18,000 -300 Climbing Boston Center
23:13 41.8792 -72.5794 128° Southeast 394 453 17,400 -1,440 Descending Boston Center
23:14 41.8481 -72.5236 127° Southeast 389 448 16,400 -2,040 Descending Boston Center
23:15 41.7878 -72.4178 127° Southeast 370 426 14,300 -2,040 Descending Boston Center
23:15 41.7564 -72.3622 127° Southeast 371 427 13,400 -1,920 Descending Boston Center
23:16 41.7272 -72.3067 125° Southeast 370 426 12,400 -2,100 Descending Boston Center
23:16 41.6958 -72.2539 129° Southeast 354 407 11,300 -1,320 Descending Boston Center
23:17 41.6769 -72.2150 123° Southeast 351 404 11,100 -240 Descending Boston Center
23:17 41.6414 -72.1594 131° Southeast 298 343 11,100  Level Boston Center
23:18 41.6206 -72.1181 124° Southeast 311 358 11,100 -540 Level Boston Center
23:18 41.5911 -72.0708 130° Southeast 306 352 10,600 -1,020 Descending Boston Center
23:19 41.5450 -71.9936 129° Southeast 282 325 9,700 -1,200 Descending Boston Center
23:20 41.5008 -71.9189 128° Southeast 248 285 8,300 -1,380 Descending Boston Center
23:21 41.4631 -71.8472 125° Southeast 242 278 7,000 -960 Descending Boston Center
23:22 41.4378 -71.7728 114° Southeast 185 213 6,300 -1,020 Descending Boston Center
23:23 41.4497 -71.7200 73° East 180 207 5,000 -1,260 Descending Boston Center
23:24 41.4642 -71.6672 70° East 158 182 3,900 -1,200 Descending Boston Center
23:25 41.4889 -71.6225 54° Northeast 151 174 2,600 -900 Descending Boston Center
23:26 41.5219 -71.5972 30° Northeast 134 154 2,100 -300 Descending Boston Center
23:27 41.5572 -71.5719 28° Northeast 137 158 2,100  Level Boston Center
23:28 41.5883 -71.5436 34° Northeast 136 157 2,100  Level Boston Center